Time;durP1;ratioP1;P1;durP2;ratioP2;P2;SDS_P1;SDS_P2;PMS_P1;PMS_P2;Temp;Humidity;BMP_temperature;BMP_pressure;BME280_temperature;BME280_humidity;BME280_pressure;Samples;Min_cycle;Max_cycle;Signal;HPM_P1;HPM_P2
2021/05/13 00:00:58;;;;;;;2.97;2.70;;;10.80;99.90;;;;;;5053618;28;20465;-81
2021/05/13 00:03:24;;;;;;;4.13;2.70;;;10.80;99.90;;;;;;5054002;28;20445;-82
2021/05/13 00:05:50;;;;;;;4.53;3.03;;;10.80;99.90;;;;;;5053730;28;20430;-82
2021/05/13 00:08:17;;;;;;;3.43;2.83;;;10.80;99.90;;;;;;5053369;28;20482;-82
2021/05/13 00:10:44;;;;;;;3.40;2.90;;;10.80;99.90;;;;;;5053633;28;20524;-82
2021/05/13 00:13:10;;;;;;;5.13;3.07;;;10.70;99.90;;;;;;5053705;28;20519;-78
2021/05/13 00:15:38;;;;;;;3.60;2.77;;;10.70;99.90;;;;;;5053231;28;20433;-78
2021/05/13 00:18:06;;;;;;;3.43;3.13;;;10.70;99.90;;;;;;5053383;28;20523;-78
2021/05/13 00:20:34;;;;;;;4.60;3.40;;;10.70;99.90;;;;;;5053470;28;20512;-78
2021/05/13 00:23:01;;;;;;;3.63;3.33;;;10.70;99.90;;;;;;5053253;28;20515;-78
2021/05/13 00:25:29;;;;;;;2.93;2.83;;;10.70;99.90;;;;;;5053426;28;20456;-78
2021/05/13 00:27:56;;;;;;;8.17;3.53;;;10.60;99.90;;;;;;5053190;28;20489;-78
2021/05/13 00:30:23;;;;;;;3.37;3.07;;;10.60;99.90;;;;;;5053023;28;20803;-78
2021/05/13 00:32:49;;;;;;;3.70;3.37;;;10.60;99.90;;;;;;5053260;28;20445;-78
2021/05/13 00:35:18;;;;;;;4.90;3.40;;;10.60;99.90;;;;;;5052808;28;20797;-78
2021/05/13 00:37:45;;;;;;;4.37;3.83;;;10.60;99.90;;;;;;5052849;28;21013;-78
2021/05/13 00:40:13;;;;;;;5.60;3.53;;;10.60;99.90;;;;;;5053880;28;20510;-78
2021/05/13 00:42:41;;;;;;;3.27;2.97;;;10.50;99.90;;;;;;5053230;28;20450;-78
2021/05/13 00:45:09;;;;;;;4.07;3.53;;;10.50;99.90;;;;;;5052959;28;20805;-79
2021/05/13 00:47:38;;;;;;;4.10;3.70;;;10.50;99.90;;;;;;5053055;28;20465;-83
2021/05/13 00:50:05;;;;;;;7.97;3.90;;;10.50;99.90;;;;;;5053394;28;20454;-83
2021/05/13 00:52:33;;;;;;;4.17;3.47;;;10.50;99.90;;;;;;5053468;28;20465;-83
2021/05/13 00:55:00;;;;;;;3.40;3.10;;;10.40;99.90;;;;;;5053100;28;20934;-83
2021/05/13 00:57:27;;;;;;;3.53;3.07;;;10.40;99.90;;;;;;5052923;28;20495;-83
2021/05/13 00:59:58;;;;;;;5.13;3.30;;;10.40;99.90;;;;;;5052945;28;20944;-82
2021/05/13 01:02:25;;;;;;;4.73;3.47;;;10.40;99.90;;;;;;5053170;28;20774;-83
2021/05/13 01:04:51;;;;;;;4.10;3.00;;;10.40;99.90;;;;;;5053316;28;20862;-83
2021/05/13 01:07:17;;;;;;;3.40;2.90;;;10.30;99.90;;;;;;5053067;28;21007;-83
2021/05/13 01:09:44;;;;;;;4.10;3.80;;;10.30;99.90;;;;;;5053001;28;20560;-83
2021/05/13 01:12:15;;;;;;;3.20;3.00;;;10.30;99.90;;;;;;5052932;28;20490;-82
2021/05/13 01:14:43;;;;;;;3.70;3.40;;;10.30;99.90;;;;;;5053332;28;20434;-82
2021/05/13 01:17:19;;;;;;;3.30;3.00;;;10.30;99.90;;;;;;5053336;28;20466;-83
2021/05/13 01:19:47;;;;;;;3.47;3.07;;;10.20;99.90;;;;;;5053384;28;20462;-82
2021/05/13 01:22:15;;;;;;;3.20;2.90;;;10.20;99.90;;;;;;5053825;28;20458;-83
2021/05/13 01:24:42;;;;;;;5.20;3.17;;;10.20;99.90;;;;;;5053083;28;20449;-83
2021/05/13 01:27:08;;;;;;;3.60;3.00;;;10.20;99.90;;;;;;5053327;28;20824;-83
2021/05/13 01:29:35;;;;;;;4.53;2.90;;;10.20;99.90;;;;;;5052676;28;20456;-83
2021/05/13 01:32:02;;;;;;;6.40;3.63;;;10.20;99.90;;;;;;5052538;28;20468;-83
2021/05/13 01:34:28;;;;;;;3.63;3.03;;;10.20;99.90;;;;;;5052945;28;20445;-83
2021/05/13 01:36:55;;;;;;;3.97;2.73;;;10.20;99.90;;;;;;5052457;28;20866;-83
2021/05/13 01:39:22;;;;;;;4.43;3.07;;;10.20;99.90;;;;;;5052732;28;20465;-81
2021/05/13 01:41:49;;;;;;;3.83;3.00;;;10.20;99.90;;;;;;5052473;28;20457;-81
2021/05/13 01:44:15;;;;;;;3.50;3.17;;;10.10;99.90;;;;;;5052446;28;20909;-81
2021/05/13 01:46:41;;;;;;;3.53;2.87;;;10.10;99.90;;;;;;5054171;28;20886;-82
2021/05/13 01:49:16;;;;;;;4.13;2.60;;;10.10;99.90;;;;;;5056234;28;20461;-82
2021/05/13 01:51:43;;;;;;;4.50;3.17;;;10.00;99.90;;;;;;5056307;28;20437;-81
2021/05/13 01:54:09;;;;;;;2.70;2.50;;;9.90;99.90;;;;;;5056243;28;20449;-82
2021/05/13 01:56:36;;;;;;;3.87;3.43;;;10.00;99.90;;;;;;5056256;28;20449;-82
2021/05/13 01:59:03;;;;;;;3.60;3.13;;;9.90;99.90;;;;;;5056098;28;20473;-82
2021/05/13 02:01:29;;;;;;;3.10;2.87;;;9.90;99.90;;;;;;5056101;28;20810;-82
2021/05/13 02:03:55;;;;;;;4.53;3.33;;;9.90;99.90;;;;;;5056055;28;20437;-82
2021/05/13 02:06:22;;;;;;;3.70;2.57;;;9.80;99.90;;;;;;5055724;28;20434;-77
2021/05/13 02:08:48;;;;;;;5.10;3.23;;;9.80;99.90;;;;;;5055747;28;20485;-77
2021/05/13 02:11:14;;;;;;;3.93;3.10;;;9.70;99.90;;;;;;5055862;28;20438;-77
2021/05/13 02:13:41;;;;;;;6.50;3.20;;;9.70;99.90;;;;;;5055785;28;20450;-77
2021/05/13 02:16:07;;;;;;;3.30;3.10;;;9.70;99.90;;;;;;5055732;28;20445;-77
2021/05/13 02:18:34;;;;;;;4.60;3.80;;;9.60;99.90;;;;;;5055367;28;20465;-77
2021/05/13 02:21:00;;;;;;;3.87;3.27;;;9.50;99.90;;;;;;5055372;28;20446;-77
2021/05/13 02:23:26;;;;;;;3.30;3.10;;;9.50;99.90;;;;;;5055298;28;20456;-82
2021/05/13 02:25:53;;;;;;;3.17;2.87;;;9.50;99.90;;;;;;5055669;28;20503;-82
2021/05/13 02:28:19;;;;;;;4.93;3.17;;;9.40;99.90;;;;;;5055432;28;20497;-82
2021/05/13 02:30:46;;;;;;;5.90;3.70;;;9.40;99.90;;;;;;5055535;28;20461;-83
2021/05/13 02:33:13;;;;;;;7.10;4.20;;;9.30;99.90;;;;;;5055497;28;20450;-82
2021/05/13 02:35:39;;;;;;;5.23;3.57;;;9.30;99.90;;;;;;5055380;28;20449;-81
2021/05/13 02:38:06;;;;;;;5.63;3.50;;;9.20;99.90;;;;;;5055262;28;20481;-82
2021/05/13 02:40:32;;;;;;;5.47;3.60;;;9.20;99.90;;;;;;5055288;28;20442;-82
2021/05/13 02:42:59;;;;;;;4.23;3.83;;;9.10;99.90;;;;;;5055271;28;20449;-78
2021/05/13 02:45:25;;;;;;;5.17;4.37;;;9.10;99.90;;;;;;5054974;28;20469;-77
2021/05/13 02:47:52;;;;;;;8.27;4.20;;;9.10;99.90;;;;;;5054798;28;20482;-77
2021/05/13 02:50:19;;;;;;;5.27;4.80;;;9.10;99.90;;;;;;5055083;28;20481;-77
2021/05/13 02:52:46;;;;;;;6.40;3.67;;;9.00;99.90;;;;;;5054728;28;20450;-77
2021/05/13 02:55:13;;;;;;;4.43;3.83;;;9.00;99.90;;;;;;5055035;28;20817;-77
2021/05/13 02:57:40;;;;;;;5.97;4.80;;;9.00;99.90;;;;;;5054177;28;20806;-77
2021/05/13 03:02:53;;;;;;;5.20;4.80;;;9.00;99.90;;;;;;5054328;28;20426;-77
2021/05/13 03:05:22;;;;;;;5.43;4.97;;;9.00;99.90;;;;;;5054888;28;20445;-82
2021/05/13 03:07:50;;;;;;;5.43;4.93;;;9.10;99.90;;;;;;5054412;28;20875;-81
2021/05/13 03:10:21;;;;;;;6.60;5.10;;;9.10;99.90;;;;;;5054781;28;20450;-82
2021/05/13 03:12:49;;;;;;;5.57;4.63;;;9.00;99.90;;;;;;5055186;28;20433;-82
2021/05/13 03:15:16;;;;;;;6.83;5.50;;;9.00;99.90;;;;;;5054437;28;20544;-82
2021/05/13 03:17:42;;;;;;;6.33;4.90;;;9.00;99.90;;;;;;5054595;28;20446;-84
2021/05/13 03:20:13;;;;;;;5.50;5.00;;;8.90;99.90;;;;;;5054801;28;20456;-77
2021/05/13 03:22:39;;;;;;;5.97;5.00;;;8.80;99.90;;;;;;5054488;28;20449;-77
2021/05/13 03:25:07;;;;;;;6.97;5.60;;;8.80;99.90;;;;;;5054440;28;20492;-77
2021/05/13 03:27:46;;;;;;;7.13;5.40;;;8.70;99.90;;;;;;5054209;28;20573;-77
2021/05/13 03:30:14;;;;;;;8.23;5.50;;;8.70;99.90;;;;;;5054338;28;20442;-77
2021/05/13 03:32:41;;;;;;;5.90;5.23;;;8.70;99.90;;;;;;5053966;28;20953;-77
2021/05/13 03:35:09;;;;;;;6.93;5.87;;;8.70;99.90;;;;;;5053978;28;20963;-77
2021/05/13 03:37:35;;;;;;;8.80;5.10;;;8.70;99.90;;;;;;5054048;28;20531;-77
2021/05/13 03:40:02;;;;;;;5.83;5.20;;;8.70;99.90;;;;;;5054135;28;20456;-77
2021/05/13 03:42:28;;;;;;;8.60;5.23;;;8.70;99.90;;;;;;5054074;28;20453;-82
2021/05/13 03:44:54;;;;;;;5.83;5.07;;;8.70;99.90;;;;;;5054049;28;20450;-82
2021/05/13 03:47:21;;;;;;;7.70;5.90;;;8.60;99.90;;;;;;5053555;28;20489;-82
2021/05/13 03:49:47;;;;;;;7.83;5.20;;;8.60;99.90;;;;;;5053943;28;20473;-81
2021/05/13 03:52:14;;;;;;;6.40;5.47;;;8.60;99.90;;;;;;5053978;28;20445;-81
2021/05/13 03:54:40;;;;;;;6.70;5.70;;;8.60;99.90;;;;;;5053656;28;20837;-83
2021/05/13 03:57:07;;;;;;;6.60;5.43;;;8.70;99.90;;;;;;5053717;28;20456;-82
2021/05/13 03:59:37;;;;;;;9.50;5.57;;;8.70;99.90;;;;;;5053726;28;20578;-82
2021/05/13 04:02:08;;;;;;;8.87;6.00;;;8.70;99.90;;;;;;5053756;28;20456;-82
2021/05/13 04:04:36;;;;;;;6.57;5.50;;;8.70;99.90;;;;;;5053499;28;20792;-82
2021/05/13 04:07:03;;;;;;;6.90;6.20;;;8.80;99.90;;;;;;5053327;28;20890;-82
2021/05/13 04:09:30;;;;;;;7.10;5.80;;;8.90;99.90;;;;;;5053549;28;20517;-82
2021/05/13 04:11:57;;;;;;;8.17;6.40;;;9.00;99.90;;;;;;5053307;28;20490;-82
2021/05/13 04:14:23;;;;;;;8.90;5.80;;;9.10;99.90;;;;;;5053592;28;20452;-82
2021/05/13 04:16:54;;;;;;;8.10;6.03;;;9.10;99.90;;;;;;5053443;28;20497;-82
2021/05/13 04:19:21;;;;;;;13.57;6.43;;;9.20;99.90;;;;;;5053507;28;20469;-82
2021/05/13 04:21:48;;;;;;;6.97;6.00;;;9.30;99.90;;;;;;5053530;28;20445;-82
2021/05/13 04:24:18;;;;;;;9.67;6.33;;;9.30;99.90;;;;;;5053531;28;20475;-82
2021/05/13 04:26:45;;;;;;;8.30;5.93;;;9.40;99.90;;;;;;5053623;28;20446;-82
2021/05/13 04:29:12;;;;;;;8.03;5.77;;;9.50;99.90;;;;;;5053025;28;20480;-82
2021/05/13 04:31:38;;;;;;;7.23;5.67;;;9.50;99.90;;;;;;5053318;28;20442;-82
2021/05/13 04:34:05;;;;;;;8.13;5.80;;;9.60;99.90;;;;;;5053354;28;20453;-82
2021/05/13 04:36:31;;;;;;;7.80;5.20;;;9.70;99.90;;;;;;5053872;28;20446;-82
2021/05/13 04:38:58;;;;;;;7.53;6.33;;;9.80;99.90;;;;;;5053203;28;20532;-82
2021/05/13 04:41:28;;;;;;;6.70;6.10;;;9.80;99.90;;;;;;5053268;28;20453;-82
2021/05/13 04:43:55;;;;;;;8.00;5.40;;;9.90;99.90;;;;;;5053395;28;20449;-82
2021/05/13 04:46:23;;;;;;;7.43;5.40;;;10.00;99.90;;;;;;5053088;28;20481;-82
2021/05/13 04:48:56;;;;;;;6.40;5.10;;;10.10;99.90;;;;;;5053115;28;20858;-82
2021/05/13 04:51:26;;;;;;;6.23;5.20;;;10.20;99.90;;;;;;5053189;28;20434;-81
2021/05/13 04:53:52;;;;;;;7.13;5.70;;;10.30;99.90;;;;;;5053197;28;20446;-82
2021/05/13 04:56:20;;;;;;;8.67;5.67;;;10.40;99.90;;;;;;5053180;28;20491;-78
2021/05/13 04:58:46;;;;;;;8.83;5.17;;;10.40;99.90;;;;;;5052728;28;20461;-78
2021/05/13 05:01:14;;;;;;;6.73;5.30;;;10.40;99.90;;;;;;5053036;28;20450;-78
2021/05/13 05:03:40;;;;;;;5.97;5.30;;;10.40;99.90;;;;;;5053020;28;20442;-78
2021/05/13 05:06:06;;;;;;;6.20;5.60;;;10.50;99.90;;;;;;5052699;28;20940;-78
2021/05/13 05:08:33;;;;;;;6.60;5.20;;;10.50;99.90;;;;;;5052585;28;20478;-78
2021/05/13 05:10:59;;;;;;;8.00;4.83;;;10.60;99.90;;;;;;5052940;28;20450;-78
2021/05/13 05:13:25;;;;;;;4.97;4.47;;;10.60;99.90;;;;;;5052686;28;20430;-77
2021/05/13 05:15:51;;;;;;;5.30;4.90;;;10.50;99.90;;;;;;5052668;28;20426;-77
2021/05/13 05:18:19;;;;;;;6.20;4.87;;;10.60;99.90;;;;;;5052686;28;20481;-81
2021/05/13 05:20:46;;;;;;;5.43;4.93;;;10.60;99.90;;;;;;5053167;28;20449;-82
2021/05/13 05:23:12;;;;;;;11.63;5.00;;;10.60;99.90;;;;;;5056873;28;20449;-81
2021/05/13 05:25:39;;;;;;;5.33;4.83;;;10.60;99.90;;;;;;5056682;28;20457;-82
2021/05/13 05:28:06;;;;;;;6.60;5.17;;;10.70;99.90;;;;;;5056584;28;20595;-81
2021/05/13 05:30:33;;;;;;;5.27;4.87;;;10.70;99.90;;;;;;5056683;28;20476;-81
2021/05/13 05:33:00;;;;;;;5.20;4.70;;;10.80;99.90;;;;;;5056858;28;20462;-82
2021/05/13 05:35:27;;;;;;;5.93;5.40;;;10.80;99.90;;;;;;5056476;28;20453;-82
2021/05/13 05:37:54;;;;;;;5.43;4.93;;;10.90;99.90;;;;;;5056089;28;20844;-82
2021/05/13 05:40:20;;;;;;;6.90;5.53;;;11.10;99.90;;;;;;5056513;28;20449;-82
2021/05/13 05:42:48;;;;;;;6.13;5.00;;;11.10;99.90;;;;;;5056464;28;20453;-81
2021/05/13 05:45:15;;;;;;;5.80;5.20;;;11.20;99.90;;;;;;5057084;28;20499;-81
2021/05/13 05:47:42;;;;;;;6.67;5.23;;;11.40;99.90;;;;;;5056654;28;20485;-82
2021/05/13 05:50:09;;;;;;;5.93;4.90;;;11.50;99.90;;;;;;5056254;28;20449;-81
2021/05/13 05:52:36;;;;;;;4.97;4.43;;;11.60;99.90;;;;;;5056324;28;20453;-82
2021/05/13 05:55:03;;;;;;;5.60;5.10;;;11.60;99.90;;;;;;5056257;28;20559;-82
2021/05/13 05:57:29;;;;;;;6.20;4.70;;;11.80;99.90;;;;;;5055859;28;20893;-82
2021/05/13 05:59:57;;;;;;;5.17;4.67;;;11.80;99.90;;;;;;5055982;28;20446;-82
2021/05/13 06:02:24;;;;;;;6.43;4.80;;;12.10;99.90;;;;;;5056307;28;20450;-82
2021/05/13 06:04:52;;;;;;;5.30;4.80;;;12.20;99.90;;;;;;5056017;28;20457;-82
2021/05/13 06:07:18;;;;;;;5.23;4.50;;;12.30;99.90;;;;;;5056840;28;20481;-82
2021/05/13 06:09:45;;;;;;;7.60;4.37;;;12.40;99.90;;;;;;5055804;28;20485;-82
2021/05/13 06:12:12;;;;;;;9.33;5.07;;;12.50;99.90;;;;;;5055947;28;20461;-82
2021/05/13 06:14:39;;;;;;;5.43;4.87;;;12.70;99.90;;;;;;5055626;28;20430;-82
2021/05/13 06:17:05;;;;;;;4.60;4.20;;;12.90;99.90;;;;;;5055502;28;20945;-81
2021/05/13 06:19:32;;;;;;;5.63;4.20;;;13.00;99.90;;;;;;5055656;28;20470;-82
2021/05/13 06:21:58;;;;;;;8.30;5.50;;;13.20;99.90;;;;;;5055702;28;20521;-82
2021/05/13 06:24:25;;;;;;;4.97;4.47;;;13.40;99.90;;;;;;5055503;28;20453;-82
2021/05/13 06:26:59;;;;;;;4.43;4.03;;;13.60;99.90;;;;;;5055517;28;20449;-82
2021/05/13 06:29:27;;;;;;;5.20;4.70;;;14.00;99.90;;;;;;5055553;28;20527;-82
2021/05/13 06:31:53;;;;;;;5.20;3.80;;;14.30;99.90;;;;;;5055258;28;20816;-82
2021/05/13 06:34:20;;;;;;;5.03;4.37;;;14.60;99.90;;;;;;5055151;28;20498;-82
2021/05/13 06:36:46;;;;;;;5.27;4.57;;;14.80;99.90;;;;;;5055577;28;20867;-82
2021/05/13 06:39:12;;;;;;;4.00;3.67;;;15.00;99.90;;;;;;5055128;28;20969;-82
2021/05/13 06:41:41;;;;;;;4.70;4.30;;;15.20;99.90;;;;;;5055126;28;20764;-82
2021/05/13 06:44:08;;;;;;;4.40;4.00;;;15.40;99.90;;;;;;5055342;28;20533;-81
2021/05/13 06:46:35;;;;;;;4.93;4.33;;;15.40;99.90;;;;;;5054970;28;20486;-82
2021/05/13 06:49:01;;;;;;;5.23;4.20;;;15.60;99.90;;;;;;5055215;28;20489;-82
2021/05/13 06:51:28;;;;;;;5.10;4.20;;;16.00;99.90;;;;;;5055355;28;20464;-82
2021/05/13 06:53:54;;;;;;;3.50;3.30;;;16.10;99.90;;;;;;5055002;28;20813;-83
2021/05/13 06:56:21;;;;;;;4.20;3.80;;;16.50;99.90;;;;;;5055254;28;20408;-83
2021/05/13 06:58:48;;;;;;;4.87;4.00;;;17.10;99.90;;;;;;5054949;28;20468;-83
2021/05/13 07:01:15;;;;;;;4.13;3.47;;;18.30;99.90;;;;;;5056049;28;20445;-83
2021/05/13 07:03:42;;;;;;;3.67;3.40;;;19.30;99.90;;;;;;5055210;28;20817;-82
2021/05/13 07:06:08;;;;;;;3.55;3.17;;;20.30;99.90;;;;;;5054877;28;20206;-83
2021/05/13 07:08:35;;;;;;;3.38;3.08;;;21.30;99.00;;;;;;5054826;28;20230;-83
2021/05/13 07:11:01;;;;;;;3.58;2.97;;;22.20;94.40;;;;;;5054698;28;20218;-84
2021/05/13 07:13:27;;;;;;;2.67;2.50;;;22.90;90.30;;;;;;5054556;28;20215;-83
2021/05/13 07:15:54;;;;;;;3.10;2.85;;;23.80;85.90;;;;;;5054883;28;20204;-83
2021/05/13 07:18:21;;;;;;;5.75;3.38;;;24.60;78.50;;;;;;5054668;28;20222;-83
2021/05/13 07:20:47;;;;;;;4.03;2.80;;;24.60;71.70;;;;;;5054425;28;20200;-83
2021/05/13 07:23:14;;;;;;;2.58;2.47;;;24.20;71.20;;;;;;5054609;28;20211;-84
2021/05/13 07:25:41;;;;;;;2.03;1.85;;;24.10;70.80;;;;;;5054532;28;20269;-83
2021/05/13 07:28:08;;;;;;;2.22;2.03;;;24.20;70.60;;;;;;5053642;28;20237;-83
2021/05/13 07:30:34;;;;;;;1.75;1.65;;;24.60;67.20;;;;;;5054088;28;20213;-84
2021/05/13 07:33:00;;;;;;;1.90;1.80;;;24.70;63.70;;;;;;5047031;28;20199;-83
2021/05/13 07:35:27;;;;;;;2.08;1.83;;;25.10;61.50;;;;;;5034173;28;20651;-83
2021/05/13 07:37:54;;;;;;;1.50;1.40;;;25.80;60.30;;;;;;5052168;28;20597;-83
2021/05/13 07:40:22;;;;;;;1.70;1.60;;;26.80;57.90;;;;;;5053628;28;20287;-83
2021/05/13 07:42:49;;;;;;;1.60;1.50;;;28.10;55.60;;;;;;5037622;28;20293;-83
2021/05/13 07:45:17;;;;;;;2.10;1.42;;;29.30;51.80;;;;;;5050857;28;20206;-84
2021/05/13 07:47:44;;;;;;;1.50;1.40;;;30.40;48.50;;;;;;5037544;28;20269;-83
2021/05/13 07:50:12;;;;;;;1.33;1.23;;;31.30;45.80;;;;;;5046569;28;20214;-81
2021/05/13 07:52:40;;;;;;;1.63;1.52;;;32.20;45.10;;;;;;5045977;28;20303;-81
2021/05/13 07:55:08;;;;;;;1.25;1.00;;;32.70;41.30;;;;;;5038156;28;20521;-83
2021/05/13 07:57:35;;;;;;;1.10;1.02;;;33.10;39.70;;;;;;5045938;28;20560;-84
2021/05/13 08:00:01;;;;;;;1.10;1.10;;;33.60;37.50;;;;;;5047035;28;20203;-84
2021/05/13 08:02:27;;;;;;;3.03;2.83;;;33.90;37.20;;;;;;5047915;28;20651;-84
2021/05/13 08:04:54;;;;;;;1.20;1.20;;;33.90;36.70;;;;;;5043835;28;20197;-84
2021/05/13 08:07:22;;;;;;;1.40;1.30;;;33.80;37.70;;;;;;5048115;28;20249;-83
2021/05/13 08:09:49;;;;;;;1.40;1.30;;;33.60;36.00;;;;;;5045152;28;20227;-84
2021/05/13 08:12:16;;;;;;;1.00;1.00;;;33.10;36.80;;;;;;5052889;28;20206;-84
2021/05/13 08:14:44;;;;;;;1.30;1.30;;;32.80;37.50;;;;;;5050615;28;20658;-84
2021/05/13 08:17:10;;;;;;;1.33;1.23;;;31.90;38.70;;;;;;5042688;28;20551;-84
2021/05/13 08:19:36;;;;;;;1.20;1.10;;;31.10;39.40;;;;;;5053061;28;20221;-84
2021/05/13 08:22:03;;;;;;;1.10;1.00;;;29.90;41.10;;;;;;5041198;28;20577;-83
2021/05/13 08:24:29;;;;;;;1.20;1.10;;;28.90;40.90;;;;;;5042787;28;20195;-83
2021/05/13 08:27:00;;;;;;;1.10;1.10;;;27.80;42.50;;;;;;5051467;28;20246;-83
2021/05/13 08:29:27;;;;;;;1.90;1.40;;;26.80;44.80;;;;;;5041263;28;20309;-83
2021/05/13 08:31:53;;;;;;;1.13;1.00;;;25.90;47.80;;;;;;5052664;28;20219;-83
2021/05/13 08:34:20;;;;;;;1.30;1.20;;;25.60;48.50;;;;;;5052959;28;20211;-83
2021/05/13 08:36:46;;;;;;;1.25;1.10;;;24.90;48.80;;;;;;5040241;28;20201;-84
2021/05/13 08:39:12;;;;;;;1.10;1.10;;;24.40;49.60;;;;;;5040164;28;20231;-83
2021/05/13 08:41:39;;;;;;;1.10;1.00;;;24.60;49.10;;;;;;5033239;28;20207;-83
2021/05/13 08:44:08;;;;;;;1.42;0.93;;;24.60;49.10;;;;;;5039956;28;20566;-83
2021/05/13 08:46:36;;;;;;;3.47;1.10;;;24.00;48.60;;;;;;5041093;28;20237;-83
2021/05/13 08:49:04;;;;;;;0.93;0.90;;;23.40;49.00;;;;;;5037694;28;20223;-83
2021/05/13 08:51:31;;;;;;;1.58;1.48;;;23.00;51.10;;;;;;5042582;28;20199;-83
2021/05/13 08:53:58;;;;;;;1.10;0.90;;;22.60;50.90;;;;;;5042353;28;20551;-83
2021/05/13 08:56:26;;;;;;;2.72;1.33;;;22.50;51.20;;;;;;5044297;28;20214;-83
2021/05/13 08:58:53;;;;;;;2.10;1.23;;;22.40;50.60;;;;;;5046408;28;20221;-83
2021/05/13 09:01:22;;;;;;;1.17;1.15;;;22.00;50.20;;;;;;5046974;28;20203;-83
2021/05/13 09:03:51;;;;;;;1.57;1.03;;;21.80;51.00;;;;;;5047069;28;20210;-83
2021/05/13 09:06:22;;;;;;;0.80;0.80;;;21.60;52.10;;;;;;5046951;28;20194;-83
2021/05/13 09:08:49;;;;;;;2.30;0.80;;;21.30;51.90;;;;;;5046920;28;20229;-83
2021/05/13 09:11:17;;;;;;;1.10;0.70;;;21.10;53.20;;;;;;5046718;28;20940;-82
2021/05/13 09:13:48;;;;;;;2.20;0.90;;;20.70;50.00;;;;;;5046183;28;20453;-81
2021/05/13 09:16:34;;;;;;;0.90;0.70;;;20.40;51.10;;;;;;5046949;28;20442;-81
2021/05/13 09:19:19;;;;;;;1.07;0.70;;;20.10;52.80;;;;;;5036651;28;20466;-81
2021/05/13 09:21:57;;;;;;;0.80;0.80;;;19.80;54.00;;;;;;5036509;28;20450;-81
2021/05/13 09:24:45;;;;;;;0.90;0.80;;;19.60;54.70;;;;;;5036825;28;20445;-81
2021/05/13 09:27:19;;;;;;;1.47;1.37;;;19.30;56.00;;;;;;5036536;28;20453;-81
2021/05/13 09:29:46;;;;;;;2.40;0.87;;;19.00;57.80;;;;;;5036309;28;20470;-82
2021/05/13 09:32:18;;;;;;;2.50;0.90;;;18.80;58.20;;;;;;5036329;28;20438;-81
2021/05/13 09:34:45;;;;;;;1.83;0.90;;;18.50;58.80;;;;;;5036860;28;20439;-81
2021/05/13 09:37:12;;;;;;;2.40;1.70;;;18.40;58.50;;;;;;5036272;28;20443;-81
2021/05/13 09:39:46;;;;;;;2.40;1.20;;;18.10;59.00;;;;;;5036161;28;20489;-81
2021/05/13 09:42:13;;;;;;;2.50;0.80;;;18.00;61.40;;;;;;5036098;28;20945;-81
2021/05/13 09:44:42;;;;;;;0.70;0.70;;;17.90;62.40;;;;;;5036288;28;20445;-80
2021/05/13 09:47:13;;;;;;;1.47;0.90;;;17.90;63.50;;;;;;5035896;28;20572;-82
2021/05/13 09:49:57;;;;;;;1.53;0.90;;;17.80;65.70;;;;;;5035927;28;20871;-81
2021/05/13 09:52:48;;;;;;;2.13;0.93;;;17.70;65.80;;;;;;5035943;28;20454;-82
2021/05/13 09:55:16;;;;;;;1.40;0.60;;;17.70;63.90;;;;;;5036188;28;20450;-82
2021/05/13 09:57:53;;;;;;;1.57;0.80;;;17.70;63.80;;;;;;5035873;28;20507;-82
2021/05/13 10:00:39;;;;;;;1.13;0.80;;;17.60;61.10;;;;;;5035743;28;20434;-81
2021/05/13 10:03:09;;;;;;;1.37;0.80;;;17.80;61.60;;;;;;5036052;28;20445;-82
2021/05/13 10:05:37;;;;;;;1.50;0.80;;;17.90;61.40;;;;;;5036035;28;20449;-82
2021/05/13 10:08:04;;;;;;;1.37;1.03;;;17.90;61.00;;;;;;5035623;28;20521;-81
2021/05/13 10:10:30;;;;;;;1.17;0.80;;;18.00;61.80;;;;;;5035955;28;20789;-81
2021/05/13 10:12:58;;;;;;;2.93;0.97;;;18.10;62.90;;;;;;5035522;28;20921;-82
2021/05/13 10:15:26;;;;;;;1.53;0.77;;;18.20;61.40;;;;;;5035816;28;20450;-82
2021/05/13 10:17:55;;;;;;;1.37;0.70;;;18.20;62.90;;;;;;5035550;28;20455;-82
2021/05/13 10:20:23;;;;;;;0.80;0.70;;;18.00;63.20;;;;;;5035761;28;20439;-82
2021/05/13 10:22:50;;;;;;;2.20;0.80;;;17.80;65.80;;;;;;5035373;28;20932;-82
2021/05/13 10:25:25;;;;;;;1.30;1.00;;;17.70;68.40;;;;;;5035640;28;20439;-82
2021/05/13 10:27:57;;;;;;;1.27;0.83;;;17.70;69.60;;;;;;5035483;28;20494;-81
2021/05/13 10:30:25;;;;;;;1.03;0.80;;;17.60;70.00;;;;;;5035495;28;20489;-82
2021/05/13 10:33:15;;;;;;;2.63;0.90;;;17.70;69.30;;;;;;5035433;28;20455;-81
2021/05/13 10:36:04;;;;;;;1.90;0.60;;;17.60;69.60;;;;;;5035544;28;20458;-80
2021/05/13 10:38:53;;;;;;;4.10;1.00;;;17.50;69.30;;;;;;5034983;28;20458;-82
2021/05/13 10:41:46;;;;;;;0.83;0.60;;;17.60;67.50;;;;;;5032010;28;20593;-82
2021/05/13 10:44:37;;;;;;;1.77;0.70;;;17.70;69.60;;;;;;5035104;28;20825;-82
2021/05/13 10:47:06;;;;;;;3.13;0.93;;;17.70;67.10;;;;;;5034809;28;20482;-81
2021/05/13 10:49:45;;;;;;;2.57;1.17;;;17.70;65.50;;;;;;5035064;28;20482;-81
2021/05/13 10:52:34;;;;;;;1.37;1.27;;;17.90;67.20;;;;;;5034984;28;20446;-83
2021/05/13 10:55:04;;;;;;;1.23;0.60;;;17.80;66.60;;;;;;5033325;28;20446;-82
2021/05/13 10:57:47;;;;;;;1.47;1.17;;;17.90;66.00;;;;;;5034831;28;20447;-83
2021/05/13 11:00:29;;;;;;;1.03;0.87;;;17.80;65.10;;;;;;5034918;28;20446;-82
2021/05/13 11:02:55;;;;;;;0.57;0.50;;;17.90;65.40;;;;;;5034940;28;20447;-82
2021/05/13 11:05:43;;;;;;;1.27;0.90;;;18.40;65.00;;;;;;5054417;28;20449;-82
2021/05/13 11:08:41;;;;;;;1.27;0.97;;;18.70;60.60;;;;;;5054323;28;21027;-83
2021/05/13 11:11:08;;;;;;;1.30;1.10;;;18.80;61.90;;;;;;5054676;28;20504;-82
2021/05/13 11:13:50;;;;;;;1.93;1.10;;;18.70;61.40;;;;;;5054386;28;20442;-82
2021/05/13 11:16:49;;;;;;;1.17;0.70;;;18.70;60.50;;;;;;5054558;28;20454;-82
2021/05/13 11:19:17;;;;;;;0.80;0.80;;;18.50;62.40;;;;;;5053860;28;20497;-82
2021/05/13 11:21:56;;;;;;;1.20;0.60;;;18.10;63.00;;;;;;5054329;28;20459;-82
2021/05/13 11:24:22;;;;;;;1.67;0.80;;;17.90;66.50;;;;;;5054413;28;20500;-82
2021/05/13 11:26:56;;;;;;;1.93;0.97;;;17.60;69.40;;;;;;5054421;28;20433;-82
2021/05/13 11:29:22;;;;;;;0.90;0.90;;;17.50;71.70;;;;;;5054056;28;20832;-82
2021/05/13 11:31:50;;;;;;;0.80;0.80;;;17.30;73.00;;;;;;5054088;28;20426;-82
2021/05/13 11:34:18;;;;;;;2.50;0.80;;;17.10;73.60;;;;;;5054260;28;20496;-82
2021/05/13 11:36:45;;;;;;;0.57;0.57;;;17.00;74.20;;;;;;5053985;28;20970;-82
2021/05/13 11:39:16;;;;;;;0.90;0.60;;;17.00;72.70;;;;;;5053825;28;21003;-82
2021/05/13 11:41:44;;;;;;;1.17;1.07;;;17.00;72.80;;;;;;5054189;28;20477;-82
2021/05/13 11:44:12;;;;;;;0.70;0.70;;;17.10;71.90;;;;;;5053834;28;20434;-82
2021/05/13 11:46:39;;;;;;;1.37;0.70;;;17.00;70.50;;;;;;5053769;28;20530;-83
2021/05/13 11:49:07;;;;;;;1.10;0.90;;;17.10;70.00;;;;;;5053692;28;20660;-82
2021/05/13 11:51:35;;;;;;;0.83;0.80;;;17.10;68.30;;;;;;5054031;28;20532;-82
2021/05/13 11:54:02;;;;;;;1.10;0.63;;;17.10;68.20;;;;;;5053957;28;20445;-82
2021/05/13 11:56:30;;;;;;;1.10;0.60;;;17.20;68.80;;;;;;5053582;28;20854;-82
2021/05/13 11:58:57;;;;;;;3.03;2.20;;;17.20;68.40;;;;;;5053485;28;20887;-82
2021/05/13 12:01:30;;;;;;;0.97;0.60;;;17.20;68.90;;;;;;5053675;28;20446;-82
2021/05/13 12:04:11;;;;;;;0.50;0.50;;;17.10;68.30;;;;;;5053754;28;20441;-82
2021/05/13 12:06:45;;;;;;;0.50;0.40;;;16.90;66.40;;;;;;5053531;28;20414;-82
2021/05/13 12:09:12;;;;;;;1.27;1.17;;;16.80;64.40;;;;;;5053292;28;20990;-82
2021/05/13 12:11:39;;;;;;;0.53;0.53;;;16.70;66.30;;;;;;5053702;28;20454;-83
2021/05/13 12:14:10;;;;;;;1.10;1.00;;;16.70;67.90;;;;;;5053525;28;20462;-82
2021/05/13 12:16:37;;;;;;;1.33;0.83;;;16.60;69.10;;;;;;5053039;28;20941;-82
2021/05/13 12:19:05;;;;;;;0.50;0.40;;;16.50;68.00;;;;;;5053507;28;20466;-84
2021/05/13 12:21:34;;;;;;;3.43;0.90;;;16.40;68.50;;;;;;5053640;28;20507;-83
2021/05/13 12:24:01;;;;;;;0.60;0.60;;;16.40;70.80;;;;;;5053338;28;20825;-82
2021/05/13 12:26:31;;;;;;;1.30;1.10;;;16.40;71.50;;;;;;5053179;28;20487;-83
2021/05/13 12:28:58;;;;;;;1.13;0.60;;;16.40;73.00;;;;;;5053031;28;20897;-82
2021/05/13 12:31:30;;;;;;;0.67;0.67;;;16.50;73.40;;;;;;5052308;28;20948;-82
2021/05/13 12:33:58;;;;;;;0.70;0.70;;;16.60;71.50;;;;;;5052997;28;20853;-83
2021/05/13 12:36:25;;;;;;;0.60;0.60;;;16.60;72.40;;;;;;5053279;28;20437;-82
2021/05/13 12:38:52;;;;;;;0.50;0.40;;;16.70;73.30;;;;;;5053040;28;20511;-83
2021/05/13 12:41:21;;;;;;;1.33;1.03;;;16.90;73.90;;;;;;5052841;28;20828;-83
2021/05/13 12:43:48;;;;;;;0.53;0.50;;;17.00;74.70;;;;;;5053140;28;20442;-83
2021/05/13 12:46:19;;;;;;;0.93;0.50;;;17.00;71.90;;;;;;5052687;28;20469;-83
2021/05/13 12:48:46;;;;;;;0.63;0.50;;;17.10;73.00;;;;;;5052766;28;20481;-83
2021/05/13 12:51:19;;;;;;;2.50;0.50;;;17.30;73.30;;;;;;5052705;28;20458;-82
2021/05/13 12:53:50;;;;;;;0.60;0.60;;;17.30;72.50;;;;;;5052846;28;20922;-83
2021/05/13 12:56:26;;;;;;;1.10;0.97;;;17.30;73.90;;;;;;5053300;28;20811;-83
2021/05/13 12:59:04;;;;;;;0.43;0.43;;;17.20;73.50;;;;;;5053044;28;20480;-83